sensor_id;sensor_type;location;lat;lon;timestamp;P1;durP1;ratioP1;P2;durP2;ratioP2
81960;SDS011;71462;50.650;6.888;2024-02-21T00:01:53;14.15;;;5.60;;
81960;SDS011;71462;50.650;6.888;2024-02-21T00:04:20;13.68;;;6.40;;
81960;SDS011;71462;50.650;6.888;2024-02-21T00:06:48;14.18;;;6.30;;
81960;SDS011;71462;50.650;6.888;2024-02-21T00:09:16;15.50;;;6.20;;
81960;SDS011;71462;50.650;6.888;2024-02-21T00:11:45;19.30;;;6.47;;
81960;SDS011;71462;50.650;6.888;2024-02-21T00:14:15;13.40;;;5.88;;
81960;SDS011;71462;50.650;6.888;2024-02-21T00:16:43;15.73;;;5.65;;
81960;SDS011;71462;50.650;6.888;2024-02-21T00:19:10;13.50;;;5.25;;
81960;SDS011;71462;50.650;6.888;2024-02-21T00:21:38;15.18;;;6.60;;
81960;SDS011;71462;50.650;6.888;2024-02-21T00:24:06;16.55;;;6.28;;
81960;SDS011;71462;50.650;6.888;2024-02-21T00:26:34;14.48;;;5.75;;
81960;SDS011;71462;50.650;6.888;2024-02-21T00:29:01;13.63;;;5.00;;
81960;SDS011;71462;50.650;6.888;2024-02-21T00:31:35;13.85;;;4.57;;
81960;SDS011;71462;50.650;6.888;2024-02-21T00:34:03;16.92;;;5.57;;
81960;SDS011;71462;50.650;6.888;2024-02-21T00:36:30;10.90;;;4.60;;
81960;SDS011;71462;50.650;6.888;2024-02-21T00:38:58;10.27;;;4.57;;
81960;SDS011;71462;50.650;6.888;2024-02-21T00:41:26;10.73;;;4.90;;
81960;SDS011;71462;50.650;6.888;2024-02-21T00:43:53;14.27;;;4.80;;
81960;SDS011;71462;50.650;6.888;2024-02-21T00:46:21;11.15;;;5.25;;
81960;SDS011;71462;50.650;6.888;2024-02-21T00:48:50;11.93;;;5.20;;
81960;SDS011;71462;50.650;6.888;2024-02-21T00:51:18;13.55;;;5.30;;
81960;SDS011;71462;50.650;6.888;2024-02-21T00:53:46;13.43;;;6.20;;
81960;SDS011;71462;50.650;6.888;2024-02-21T00:56:14;13.40;;;5.95;;
81960;SDS011;71462;50.650;6.888;2024-02-21T00:58:41;14.88;;;5.25;;
81960;SDS011;71462;50.650;6.888;2024-02-21T01:01:09;12.45;;;5.03;;
81960;SDS011;71462;50.650;6.888;2024-02-21T01:03:39;13.07;;;5.93;;
81960;SDS011;71462;50.650;6.888;2024-02-21T01:06:08;15.88;;;5.85;;
81960;SDS011;71462;50.650;6.888;2024-02-21T01:08:35;15.45;;;5.10;;
81960;SDS011;71462;50.650;6.888;2024-02-21T01:11:03;17.15;;;5.20;;
81960;SDS011;71462;50.650;6.888;2024-02-21T01:13:31;12.73;;;5.25;;
81960;SDS011;71462;50.650;6.888;2024-02-21T01:15:59;17.65;;;5.18;;
81960;SDS011;71462;50.650;6.888;2024-02-21T01:18:26;16.70;;;5.18;;
81960;SDS011;71462;50.650;6.888;2024-02-21T01:20:54;12.65;;;4.97;;
81960;SDS011;71462;50.650;6.888;2024-02-21T01:23:23;11.52;;;4.85;;
81960;SDS011;71462;50.650;6.888;2024-02-21T01:25:51;19.90;;;9.60;;
81960;SDS011;71462;50.650;6.888;2024-02-21T01:28:18;20.67;;;7.53;;
81960;SDS011;71462;50.650;6.888;2024-02-21T01:30:48;17.20;;;5.55;;
81960;SDS011;71462;50.650;6.888;2024-02-21T01:33:16;20.50;;;6.05;;
81960;SDS011;71462;50.650;6.888;2024-02-21T01:35:43;14.45;;;5.13;;
81960;SDS011;71462;50.650;6.888;2024-02-21T01:38:12;9.60;;;5.28;;
81960;SDS011;71462;50.650;6.888;2024-02-21T01:40:41;13.23;;;4.55;;
81960;SDS011;71462;50.650;6.888;2024-02-21T01:43:15;12.35;;;4.70;;
81960;SDS011;71462;50.650;6.888;2024-02-21T01:45:45;13.63;;;4.88;;
81960;SDS011;71462;50.650;6.888;2024-02-21T01:48:16;14.02;;;4.85;;
81960;SDS011;71462;50.650;6.888;2024-02-21T01:50:44;12.45;;;4.13;;
81960;SDS011;71462;50.650;6.888;2024-02-21T01:53:12;16.52;;;4.78;;
81960;SDS011;71462;50.650;6.888;2024-02-21T01:55:45;9.63;;;3.88;;
81960;SDS011;71462;50.650;6.888;2024-02-21T01:58:14;11.00;;;4.88;;
81960;SDS011;71462;50.650;6.888;2024-02-21T02:00:43;11.75;;;4.80;;
81960;SDS011;71462;50.650;6.888;2024-02-21T02:03:11;12.88;;;5.32;;
81960;SDS011;71462;50.650;6.888;2024-02-21T02:05:43;13.15;;;4.43;;
81960;SDS011;71462;50.650;6.888;2024-02-21T02:08:12;14.57;;;5.43;;
81960;SDS011;71462;50.650;6.888;2024-02-21T02:10:40;14.75;;;5.43;;
81960;SDS011;71462;50.650;6.888;2024-02-21T02:13:10;14.55;;;4.65;;
81960;SDS011;71462;50.650;6.888;2024-02-21T02:15:38;14.23;;;4.78;;
81960;SDS011;71462;50.650;6.888;2024-02-21T02:18:06;14.55;;;5.70;;
81960;SDS011;71462;50.650;6.888;2024-02-21T02:20:34;14.45;;;4.80;;
81960;SDS011;71462;50.650;6.888;2024-02-21T02:23:04;17.35;;;5.13;;
81960;SDS011;71462;50.650;6.888;2024-02-21T02:25:37;10.45;;;4.88;;
81960;SDS011;71462;50.650;6.888;2024-02-21T02:28:08;12.10;;;4.60;;
81960;SDS011;71462;50.650;6.888;2024-02-21T02:30:36;12.35;;;4.20;;
81960;SDS011;71462;50.650;6.888;2024-02-21T02:33:03;12.00;;;4.32;;
81960;SDS011;71462;50.650;6.888;2024-02-21T02:35:32;12.27;;;5.38;;
81960;SDS011;71462;50.650;6.888;2024-02-21T02:38:01;13.20;;;5.07;;
81960;SDS011;71462;50.650;6.888;2024-02-21T02:40:29;11.73;;;4.65;;
81960;SDS011;71462;50.650;6.888;2024-02-21T02:42:59;11.57;;;4.80;;
81960;SDS011;71462;50.650;6.888;2024-02-21T02:45:26;13.25;;;4.47;;
81960;SDS011;71462;50.650;6.888;2024-02-21T02:47:54;9.95;;;4.13;;
81960;SDS011;71462;50.650;6.888;2024-02-21T02:50:23;10.38;;;4.28;;
81960;SDS011;71462;50.650;6.888;2024-02-21T02:52:51;14.43;;;4.97;;
81960;SDS011;71462;50.650;6.888;2024-02-21T02:55:19;13.52;;;4.93;;
81960;SDS011;71462;50.650;6.888;2024-02-21T02:57:47;7.95;;;4.20;;
81960;SDS011;71462;50.650;6.888;2024-02-21T03:00:16;13.13;;;4.85;;
81960;SDS011;71462;50.650;6.888;2024-02-21T03:02:44;12.38;;;4.60;;
81960;SDS011;71462;50.650;6.888;2024-02-21T03:05:14;6.95;;;3.90;;
81960;SDS011;71462;50.650;6.888;2024-02-21T03:07:43;11.20;;;5.18;;
81960;SDS011;71462;50.650;6.888;2024-02-21T03:10:11;13.90;;;3.78;;
81960;SDS011;71462;50.650;6.888;2024-02-21T03:12:39;7.25;;;3.97;;
81960;SDS011;71462;50.650;6.888;2024-02-21T03:15:07;10.02;;;3.53;;
81960;SDS011;71462;50.650;6.888;2024-02-21T03:17:37;11.45;;;4.97;;
81960;SDS011;71462;50.650;6.888;2024-02-21T03:20:06;10.68;;;4.00;;
81960;SDS011;71462;50.650;6.888;2024-02-21T03:22:36;11.50;;;4.43;;
81960;SDS011;71462;50.650;6.888;2024-02-21T03:25:05;12.48;;;4.03;;
81960;SDS011;71462;50.650;6.888;2024-02-21T03:27:33;12.57;;;4.20;;
81960;SDS011;71462;50.650;6.888;2024-02-21T03:30:01;9.82;;;4.10;;
81960;SDS011;71462;50.650;6.888;2024-02-21T03:32:30;9.68;;;3.75;;
81960;SDS011;71462;50.650;6.888;2024-02-21T03:35:00;11.50;;;4.18;;
81960;SDS011;71462;50.650;6.888;2024-02-21T03:37:27;11.73;;;4.70;;
81960;SDS011;71462;50.650;6.888;2024-02-21T03:39:55;13.00;;;4.47;;
81960;SDS011;71462;50.650;6.888;2024-02-21T03:42:23;9.27;;;4.72;;
81960;SDS011;71462;50.650;6.888;2024-02-21T03:44:51;12.10;;;4.07;;
81960;SDS011;71462;50.650;6.888;2024-02-21T03:47:19;10.65;;;3.85;;
81960;SDS011;71462;50.650;6.888;2024-02-21T03:49:46;11.85;;;4.32;;
81960;SDS011;71462;50.650;6.888;2024-02-21T03:52:15;7.95;;;3.63;;
81960;SDS011;71462;50.650;6.888;2024-02-21T03:54:43;9.18;;;4.03;;
81960;SDS011;71462;50.650;6.888;2024-02-21T03:57:11;11.23;;;4.28;;
81960;SDS011;71462;50.650;6.888;2024-02-21T03:59:38;12.63;;;3.72;;
81960;SDS011;71462;50.650;6.888;2024-02-21T04:02:10;15.82;;;4.07;;
81960;SDS011;71462;50.650;6.888;2024-02-21T04:04:42;9.75;;;3.28;;
81960;SDS011;71462;50.650;6.888;2024-02-21T04:07:12;10.77;;;3.80;;
81960;SDS011;71462;50.650;6.888;2024-02-21T04:09:41;13.75;;;3.70;;
81960;SDS011;71462;50.650;6.888;2024-02-21T04:12:09;15.23;;;3.85;;
81960;SDS011;71462;50.650;6.888;2024-02-21T04:14:36;11.35;;;4.13;;
81960;SDS011;71462;50.650;6.888;2024-02-21T04:17:08;11.73;;;4.32;;
81960;SDS011;71462;50.650;6.888;2024-02-21T04:19:36;12.05;;;4.70;;
81960;SDS011;71462;50.650;6.888;2024-02-21T04:22:04;10.00;;;3.70;;
81960;SDS011;71462;50.650;6.888;2024-02-21T04:24:31;13.70;;;3.83;;
81960;SDS011;71462;50.650;6.888;2024-02-21T04:27:00;11.73;;;3.97;;
81960;SDS011;71462;50.650;6.888;2024-02-21T04:29:28;11.18;;;4.00;;
81960;SDS011;71462;50.650;6.888;2024-02-21T04:31:57;10.93;;;3.88;;
81960;SDS011;71462;50.650;6.888;2024-02-21T04:34:24;8.80;;;3.83;;
81960;SDS011;71462;50.650;6.888;2024-02-21T04:36:52;7.80;;;3.50;;
81960;SDS011;71462;50.650;6.888;2024-02-21T04:39:20;11.90;;;3.78;;
81960;SDS011;71462;50.650;6.888;2024-02-21T04:41:48;12.80;;;4.05;;
81960;SDS011;71462;50.650;6.888;2024-02-21T04:44:17;9.13;;;3.88;;
81960;SDS011;71462;50.650;6.888;2024-02-21T04:46:48;15.70;;;4.82;;
81960;SDS011;71462;50.650;6.888;2024-02-21T04:49:16;8.02;;;3.55;;
81960;SDS011;71462;50.650;6.888;2024-02-21T04:51:46;7.15;;;3.03;;
81960;SDS011;71462;50.650;6.888;2024-02-21T04:54:14;13.93;;;3.47;;
81960;SDS011;71462;50.650;6.888;2024-02-21T04:56:41;11.07;;;3.90;;
81960;SDS011;71462;50.650;6.888;2024-02-21T04:59:09;11.32;;;3.63;;
81960;SDS011;71462;50.650;6.888;2024-02-21T05:01:38;10.68;;;4.15;;
81960;SDS011;71462;50.650;6.888;2024-02-21T05:04:06;8.85;;;3.30;;
81960;SDS011;71462;50.650;6.888;2024-02-21T05:06:36;10.15;;;3.75;;
81960;SDS011;71462;50.650;6.888;2024-02-21T05:09:04;10.20;;;3.72;;
81960;SDS011;71462;50.650;6.888;2024-02-21T05:11:33;9.82;;;3.45;;
81960;SDS011;71462;50.650;6.888;2024-02-21T05:14:01;10.50;;;3.30;;
81960;SDS011;71462;50.650;6.888;2024-02-21T05:16:30;10.57;;;3.67;;
81960;SDS011;71462;50.650;6.888;2024-02-21T05:18:59;14.02;;;4.25;;
81960;SDS011;71462;50.650;6.888;2024-02-21T05:21:27;10.32;;;3.38;;
81960;SDS011;71462;50.650;6.888;2024-02-21T05:23:55;11.77;;;3.90;;
81960;SDS011;71462;50.650;6.888;2024-02-21T05:26:23;12.00;;;3.83;;
81960;SDS011;71462;50.650;6.888;2024-02-21T05:28:52;8.02;;;2.97;;
81960;SDS011;71462;50.650;6.888;2024-02-21T05:31:20;8.25;;;3.72;;
81960;SDS011;71462;50.650;6.888;2024-02-21T05:33:48;11.73;;;4.18;;
81960;SDS011;71462;50.650;6.888;2024-02-21T05:36:17;8.68;;;3.60;;
81960;SDS011;71462;50.650;6.888;2024-02-21T05:38:45;11.65;;;3.70;;
81960;SDS011;71462;50.650;6.888;2024-02-21T05:41:12;10.18;;;3.55;;
81960;SDS011;71462;50.650;6.888;2024-02-21T05:43:42;12.35;;;4.45;;
81960;SDS011;71462;50.650;6.888;2024-02-21T05:46:10;12.45;;;3.88;;
81960;SDS011;71462;50.650;6.888;2024-02-21T05:48:39;9.20;;;4.15;;
81960;SDS011;71462;50.650;6.888;2024-02-21T05:51:07;16.67;;;4.50;;
81960;SDS011;71462;50.650;6.888;2024-02-21T05:53:36;10.63;;;4.10;;
81960;SDS011;71462;50.650;6.888;2024-02-21T05:56:09;10.45;;;3.67;;
81960;SDS011;71462;50.650;6.888;2024-02-21T05:58:37;11.77;;;3.95;;
81960;SDS011;71462;50.650;6.888;2024-02-21T06:01:05;9.63;;;3.95;;
81960;SDS011;71462;50.650;6.888;2024-02-21T06:03:34;10.18;;;3.80;;
81960;SDS011;71462;50.650;6.888;2024-02-21T06:06:02;13.68;;;4.55;;
81960;SDS011;71462;50.650;6.888;2024-02-21T06:08:31;50.00;;;19.58;;
81960;SDS011;71462;50.650;6.888;2024-02-21T06:11:00;59.83;;;21.70;;
81960;SDS011;71462;50.650;6.888;2024-02-21T06:13:28;120.88;;;43.50;;
81960;SDS011;71462;50.650;6.888;2024-02-21T06:15:55;48.03;;;19.58;;
81960;SDS011;71462;50.650;6.888;2024-02-21T06:18:25;42.47;;;21.75;;
81960;SDS011;71462;50.650;6.888;2024-02-21T06:20:53;35.58;;;16.42;;
81960;SDS011;71462;50.650;6.888;2024-02-21T06:23:20;16.90;;;6.93;;
81960;SDS011;71462;50.650;6.888;2024-02-21T06:25:48;12.77;;;4.03;;
81960;SDS011;71462;50.650;6.888;2024-02-21T06:28:17;50.10;;;20.35;;
81960;SDS011;71462;50.650;6.888;2024-02-21T06:30:45;12.15;;;4.00;;
81960;SDS011;71462;50.650;6.888;2024-02-21T06:33:13;12.55;;;4.68;;
81960;SDS011;71462;50.650;6.888;2024-02-21T06:35:43;12.80;;;4.50;;
81960;SDS011;71462;50.650;6.888;2024-02-21T06:38:13;10.77;;;4.20;;
81960;SDS011;71462;50.650;6.888;2024-02-21T06:40:43;11.88;;;4.45;;
81960;SDS011;71462;50.650;6.888;2024-02-21T06:43:18;12.75;;;4.82;;
81960;SDS011;71462;50.650;6.888;2024-02-21T06:45:46;12.55;;;4.30;;
81960;SDS011;71462;50.650;6.888;2024-02-21T06:48:17;10.25;;;4.03;;
81960;SDS011;71462;50.650;6.888;2024-02-21T06:50:46;8.18;;;3.78;;
81960;SDS011;71462;50.650;6.888;2024-02-21T06:53:13;11.43;;;3.97;;
81960;SDS011;71462;50.650;6.888;2024-02-21T06:55:41;10.07;;;4.88;;
81960;SDS011;71462;50.650;6.888;2024-02-21T06:58:09;14.07;;;4.85;;
81960;SDS011;71462;50.650;6.888;2024-02-21T07:03:10;13.18;;;4.95;;
81960;SDS011;71462;50.650;6.888;2024-02-21T07:05:37;16.00;;;5.35;;
81960;SDS011;71462;50.650;6.888;2024-02-21T07:08:05;16.33;;;5.68;;
81960;SDS011;71462;50.650;6.888;2024-02-21T07:10:33;9.70;;;4.57;;
81960;SDS011;71462;50.650;6.888;2024-02-21T07:13:01;18.45;;;5.15;;
81960;SDS011;71462;50.650;6.888;2024-02-21T07:15:29;12.25;;;4.65;;
81960;SDS011;71462;50.650;6.888;2024-02-21T07:17:58;12.43;;;4.35;;
81960;SDS011;71462;50.650;6.888;2024-02-21T07:20:26;13.05;;;5.70;;
81960;SDS011;71462;50.650;6.888;2024-02-21T07:22:55;13.57;;;4.82;;
81960;SDS011;71462;50.650;6.888;2024-02-21T07:25:22;12.35;;;4.30;;
81960;SDS011;71462;50.650;6.888;2024-02-21T07:27:50;13.93;;;4.63;;
81960;SDS011;71462;50.650;6.888;2024-02-21T07:30:18;10.07;;;4.13;;
81960;SDS011;71462;50.650;6.888;2024-02-21T07:32:45;12.13;;;4.55;;
81960;SDS011;71462;50.650;6.888;2024-02-21T07:35:18;12.32;;;4.47;;
81960;SDS011;71462;50.650;6.888;2024-02-21T07:37:45;7.40;;;4.10;;
81960;SDS011;71462;50.650;6.888;2024-02-21T07:40:13;11.15;;;4.30;;
81960;SDS011;71462;50.650;6.888;2024-02-21T07:42:42;13.48;;;4.15;;
81960;SDS011;71462;50.650;6.888;2024-02-21T07:45:16;14.65;;;5.40;;
81960;SDS011;71462;50.650;6.888;2024-02-21T07:47:45;12.80;;;4.65;;
81960;SDS011;71462;50.650;6.888;2024-02-21T07:50:12;15.23;;;4.55;;
81960;SDS011;71462;50.650;6.888;2024-02-21T07:52:42;10.85;;;4.28;;
81960;SDS011;71462;50.650;6.888;2024-02-21T07:55:10;14.38;;;4.68;;
81960;SDS011;71462;50.650;6.888;2024-02-21T07:57:37;15.02;;;4.68;;
81960;SDS011;71462;50.650;6.888;2024-02-21T08:00:06;13.50;;;4.38;;
81960;SDS011;71462;50.650;6.888;2024-02-21T08:02:41;18.33;;;6.28;;
81960;SDS011;71462;50.650;6.888;2024-02-21T08:05:10;15.13;;;4.75;;
81960;SDS011;71462;50.650;6.888;2024-02-21T08:07:39;11.80;;;4.03;;
81960;SDS011;71462;50.650;6.888;2024-02-21T08:10:08;11.95;;;4.53;;
81960;SDS011;71462;50.650;6.888;2024-02-21T08:12:36;14.60;;;4.45;;
81960;SDS011;71462;50.650;6.888;2024-02-21T08:15:04;12.50;;;4.63;;
81960;SDS011;71462;50.650;6.888;2024-02-21T08:17:34;15.52;;;4.65;;
81960;SDS011;71462;50.650;6.888;2024-02-21T08:20:02;11.43;;;4.05;;
81960;SDS011;71462;50.650;6.888;2024-02-21T08:22:30;18.88;;;4.97;;
81960;SDS011;71462;50.650;6.888;2024-02-21T08:24:58;14.75;;;4.10;;
81960;SDS011;71462;50.650;6.888;2024-02-21T08:27:28;11.05;;;4.20;;
81960;SDS011;71462;50.650;6.888;2024-02-21T08:29:55;12.90;;;4.70;;
81960;SDS011;71462;50.650;6.888;2024-02-21T08:32:23;12.95;;;4.43;;
81960;SDS011;71462;50.650;6.888;2024-02-21T08:34:51;11.75;;;4.00;;
81960;SDS011;71462;50.650;6.888;2024-02-21T08:37:19;8.68;;;3.95;;
81960;SDS011;71462;50.650;6.888;2024-02-21T08:39:47;13.50;;;4.85;;
81960;SDS011;71462;50.650;6.888;2024-02-21T08:42:15;10.40;;;3.30;;
81960;SDS011;71462;50.650;6.888;2024-02-21T08:44:44;12.82;;;4.53;;
81960;SDS011;71462;50.650;6.888;2024-02-21T08:47:12;15.65;;;3.83;;
81960;SDS011;71462;50.650;6.888;2024-02-21T08:49:40;8.52;;;3.88;;
81960;SDS011;71462;50.650;6.888;2024-02-21T08:52:08;11.35;;;3.85;;
81960;SDS011;71462;50.650;6.888;2024-02-21T08:54:35;11.48;;;3.75;;
81960;SDS011;71462;50.650;6.888;2024-02-21T08:57:03;10.52;;;3.67;;
81960;SDS011;71462;50.650;6.888;2024-02-21T08:59:31;9.98;;;3.35;;
81960;SDS011;71462;50.650;6.888;2024-02-21T09:02:00;8.57;;;3.05;;
81960;SDS011;71462;50.650;6.888;2024-02-21T09:04:29;13.18;;;4.07;;
81960;SDS011;71462;50.650;6.888;2024-02-21T09:06:57;11.00;;;3.60;;
81960;SDS011;71462;50.650;6.888;2024-02-21T09:09:25;14.05;;;3.65;;
81960;SDS011;71462;50.650;6.888;2024-02-21T09:11:55;6.85;;;3.30;;
81960;SDS011;71462;50.650;6.888;2024-02-21T09:14:23;9.95;;;3.30;;
81960;SDS011;71462;50.650;6.888;2024-02-21T09:16:51;13.18;;;4.15;;
81960;SDS011;71462;50.650;6.888;2024-02-21T09:19:19;7.68;;;3.08;;
81960;SDS011;71462;50.650;6.888;2024-02-21T09:21:47;8.98;;;3.03;;
81960;SDS011;71462;50.650;6.888;2024-02-21T09:24:15;8.63;;;3.67;;
81960;SDS011;71462;50.650;6.888;2024-02-21T09:26:43;7.95;;;3.30;;
81960;SDS011;71462;50.650;6.888;2024-02-21T09:29:10;11.75;;;3.47;;
81960;SDS011;71462;50.650;6.888;2024-02-21T09:31:38;13.75;;;3.38;;
81960;SDS011;71462;50.650;6.888;2024-02-21T09:34:08;10.82;;;3.95;;
81960;SDS011;71462;50.650;6.888;2024-02-21T09:36:39;8.93;;;3.17;;
81960;SDS011;71462;50.650;6.888;2024-02-21T09:39:07;12.13;;;3.53;;
81960;SDS011;71462;50.650;6.888;2024-02-21T09:41:36;9.25;;;3.65;;
81960;SDS011;71462;50.650;6.888;2024-02-21T09:44:09;11.05;;;3.53;;
81960;SDS011;71462;50.650;6.888;2024-02-21T09:46:42;7.70;;;2.70;;
81960;SDS011;71462;50.650;6.888;2024-02-21T09:49:20;9.63;;;2.75;;
81960;SDS011;71462;50.650;6.888;2024-02-21T09:51:58;6.50;;;3.10;;
81960;SDS011;71462;50.650;6.888;2024-02-21T09:54:32;12.43;;;3.08;;
81960;SDS011;71462;50.650;6.888;2024-02-21T09:57:01;6.75;;;3.03;;
81960;SDS011;71462;50.650;6.888;2024-02-21T09:59:30;9.75;;;3.60;;
81960;SDS011;71462;50.650;6.888;2024-02-21T10:01:59;11.82;;;2.92;;
81960;SDS011;71462;50.650;6.888;2024-02-21T10:04:28;8.57;;;3.03;;
81960;SDS011;71462;50.650;6.888;2024-02-21T10:06:58;10.48;;;3.45;;
81960;SDS011;71462;50.650;6.888;2024-02-21T10:09:26;7.40;;;2.83;;
81960;SDS011;71462;50.650;6.888;2024-02-21T10:11:56;8.27;;;3.00;;
81960;SDS011;71462;50.650;6.888;2024-02-21T10:14:34;8.40;;;3.20;;
81960;SDS011;71462;50.650;6.888;2024-02-21T10:17:02;9.32;;;3.35;;
81960;SDS011;71462;50.650;6.888;2024-02-21T10:19:31;7.50;;;3.05;;
81960;SDS011;71462;50.650;6.888;2024-02-21T10:22:03;9.13;;;3.33;;
81960;SDS011;71462;50.650;6.888;2024-02-21T10:24:34;7.03;;;2.95;;
81960;SDS011;71462;50.650;6.888;2024-02-21T10:27:04;9.27;;;3.40;;
81960;SDS011;71462;50.650;6.888;2024-02-21T10:29:34;10.25;;;2.63;;
81960;SDS011;71462;50.650;6.888;2024-02-21T10:32:06;11.77;;;3.97;;
81960;SDS011;71462;50.650;6.888;2024-02-21T10:37:04;7.85;;;2.90;;
81960;SDS011;71462;50.650;6.888;2024-02-21T10:39:33;8.98;;;2.85;;
81960;SDS011;71462;50.650;6.888;2024-02-21T10:42:02;12.60;;;3.08;;
81960;SDS011;71462;50.650;6.888;2024-02-21T10:44:31;10.38;;;3.13;;
81960;SDS011;71462;50.650;6.888;2024-02-21T10:46:59;8.75;;;3.30;;
81960;SDS011;71462;50.650;6.888;2024-02-21T10:49:33;7.82;;;2.65;;
81960;SDS011;71462;50.650;6.888;2024-02-21T10:52:09;11.48;;;5.38;;
81960;SDS011;71462;50.650;6.888;2024-02-21T10:54:44;11.57;;;3.67;;
81960;SDS011;71462;50.650;6.888;2024-02-21T10:57:16;9.02;;;2.72;;
81960;SDS011;71462;50.650;6.888;2024-02-21T10:59:44;7.28;;;3.72;;
81960;SDS011;71462;50.650;6.888;2024-02-21T11:02:12;9.80;;;4.03;;
81960;SDS011;71462;50.650;6.888;2024-02-21T11:04:41;8.45;;;3.30;;
81960;SDS011;71462;50.650;6.888;2024-02-21T11:07:12;9.93;;;3.30;;
81960;SDS011;71462;50.650;6.888;2024-02-21T11:09:40;7.75;;;3.40;;
81960;SDS011;71462;50.650;6.888;2024-02-21T11:12:19;9.65;;;3.38;;
81960;SDS011;71462;50.650;6.888;2024-02-21T11:14:48;10.15;;;3.45;;
81960;SDS011;71462;50.650;6.888;2024-02-21T11:17:15;6.90;;;3.28;;
81960;SDS011;71462;50.650;6.888;2024-02-21T11:19:44;9.68;;;3.78;;
81960;SDS011;71462;50.650;6.888;2024-02-21T11:22:17;7.43;;;3.15;;
81960;SDS011;71462;50.650;6.888;2024-02-21T11:24:46;8.88;;;2.83;;
81960;SDS011;71462;50.650;6.888;2024-02-21T11:27:14;10.45;;;2.90;;
81960;SDS011;71462;50.650;6.888;2024-02-21T11:29:44;9.68;;;3.17;;
81960;SDS011;71462;50.650;6.888;2024-02-21T11:32:14;9.05;;;3.58;;
81960;SDS011;71462;50.650;6.888;2024-02-21T11:34:52;11.38;;;3.05;;
81960;SDS011;71462;50.650;6.888;2024-02-21T11:37:23;10.23;;;3.58;;
81960;SDS011;71462;50.650;6.888;2024-02-21T11:39:53;7.45;;;3.03;;
81960;SDS011;71462;50.650;6.888;2024-02-21T11:42:20;10.88;;;3.50;;
81960;SDS011;71462;50.650;6.888;2024-02-21T11:44:48;12.35;;;3.67;;
81960;SDS011;71462;50.650;6.888;2024-02-21T11:47:16;9.68;;;3.17;;
81960;SDS011;71462;50.650;6.888;2024-02-21T11:49:44;7.25;;;3.28;;
81960;SDS011;71462;50.650;6.888;2024-02-21T11:52:13;8.35;;;3.20;;
81960;SDS011;71462;50.650;6.888;2024-02-21T11:54:43;8.32;;;2.85;;
81960;SDS011;71462;50.650;6.888;2024-02-21T11:57:10;9.15;;;3.55;;
81960;SDS011;71462;50.650;6.888;2024-02-21T11:59:39;9.07;;;3.50;;
81960;SDS011;71462;50.650;6.888;2024-02-21T12:02:07;9.93;;;3.78;;
81960;SDS011;71462;50.650;6.888;2024-02-21T12:04:37;14.38;;;3.60;;
81960;SDS011;71462;50.650;6.888;2024-02-21T12:07:05;10.18;;;3.40;;
81960;SDS011;71462;50.650;6.888;2024-02-21T12:09:34;9.05;;;2.88;;
81960;SDS011;71462;50.650;6.888;2024-02-21T12:12:04;8.35;;;3.38;;
81960;SDS011;71462;50.650;6.888;2024-02-21T12:14:33;7.30;;;3.10;;
81960;SDS011;71462;50.650;6.888;2024-02-21T12:17:02;11.40;;;3.80;;
81960;SDS011;71462;50.650;6.888;2024-02-21T12:19:33;10.57;;;3.67;;
81960;SDS011;71462;50.650;6.888;2024-02-21T12:22:02;9.63;;;3.10;;
81960;SDS011;71462;50.650;6.888;2024-02-21T12:24:32;9.48;;;3.08;;
81960;SDS011;71462;50.650;6.888;2024-02-21T12:27:00;8.75;;;3.35;;
81960;SDS011;71462;50.650;6.888;2024-02-21T12:29:31;8.15;;;2.95;;
81960;SDS011;71462;50.650;6.888;2024-02-21T12:31:58;9.65;;;3.58;;
81960;SDS011;71462;50.650;6.888;2024-02-21T12:34:26;7.00;;;2.80;;
81960;SDS011;71462;50.650;6.888;2024-02-21T12:37:13;7.38;;;2.97;;
81960;SDS011;71462;50.650;6.888;2024-02-21T12:39:42;10.80;;;3.88;;
81960;SDS011;71462;50.650;6.888;2024-02-21T12:42:10;10.40;;;3.40;;
81960;SDS011;71462;50.650;6.888;2024-02-21T12:44:40;9.52;;;3.50;;
81960;SDS011;71462;50.650;6.888;2024-02-21T12:47:08;11.77;;;3.67;;
81960;SDS011;71462;50.650;6.888;2024-02-21T12:49:36;6.68;;;3.10;;
81960;SDS011;71462;50.650;6.888;2024-02-21T12:52:09;12.68;;;3.28;;
81960;SDS011;71462;50.650;6.888;2024-02-21T12:54:37;9.30;;;3.15;;
81960;SDS011;71462;50.650;6.888;2024-02-21T12:57:05;6.25;;;2.22;;
81960;SDS011;71462;50.650;6.888;2024-02-21T12:59:33;9.57;;;3.05;;
81960;SDS011;71462;50.650;6.888;2024-02-21T13:02:02;8.98;;;2.83;;
81960;SDS011;71462;50.650;6.888;2024-02-21T13:04:30;10.65;;;3.42;;
81960;SDS011;71462;50.650;6.888;2024-02-21T13:06:58;14.00;;;3.58;;
81960;SDS011;71462;50.650;6.888;2024-02-21T13:09:26;10.50;;;3.80;;
81960;SDS011;71462;50.650;6.888;2024-02-21T13:11:53;10.52;;;3.15;;
81960;SDS011;71462;50.650;6.888;2024-02-21T13:14:21;10.18;;;2.83;;
81960;SDS011;71462;50.650;6.888;2024-02-21T13:16:49;9.02;;;3.10;;
81960;SDS011;71462;50.650;6.888;2024-02-21T13:19:18;7.82;;;2.72;;
81960;SDS011;71462;50.650;6.888;2024-02-21T13:21:47;11.93;;;3.40;;
81960;SDS011;71462;50.650;6.888;2024-02-21T13:24:14;8.63;;;2.85;;
81960;SDS011;71462;50.650;6.888;2024-02-21T13:26:42;8.18;;;3.00;;
81960;SDS011;71462;50.650;6.888;2024-02-21T13:29:09;7.72;;;2.67;;
81960;SDS011;71462;50.650;6.888;2024-02-21T13:31:38;7.22;;;2.97;;
81960;SDS011;71462;50.650;6.888;2024-02-21T13:34:06;11.40;;;4.22;;
81960;SDS011;71462;50.650;6.888;2024-02-21T13:36:38;8.82;;;2.92;;
81960;SDS011;71462;50.650;6.888;2024-02-21T13:39:08;9.10;;;2.70;;
81960;SDS011;71462;50.650;6.888;2024-02-21T13:41:39;5.95;;;2.40;;
81960;SDS011;71462;50.650;6.888;2024-02-21T13:44:07;10.15;;;2.83;;
81960;SDS011;71462;50.650;6.888;2024-02-21T13:46:36;6.72;;;2.50;;
81960;SDS011;71462;50.650;6.888;2024-02-21T13:49:05;5.47;;;2.50;;
81960;SDS011;71462;50.650;6.888;2024-02-21T13:51:33;14.65;;;3.40;;
81960;SDS011;71462;50.650;6.888;2024-02-21T13:54:04;6.43;;;2.80;;
81960;SDS011;71462;50.650;6.888;2024-02-21T13:56:35;10.70;;;2.53;;
81960;SDS011;71462;50.650;6.888;2024-02-21T13:59:02;4.88;;;2.05;;
81960;SDS011;71462;50.650;6.888;2024-02-21T14:01:31;7.38;;;3.47;;
81960;SDS011;71462;50.650;6.888;2024-02-21T14:03:59;12.10;;;2.42;;
81960;SDS011;71462;50.650;6.888;2024-02-21T14:06:27;6.93;;;2.20;;
81960;SDS011;71462;50.650;6.888;2024-02-21T14:08:55;6.32;;;2.05;;
81960;SDS011;71462;50.650;6.888;2024-02-21T14:11:24;7.95;;;2.20;;
81960;SDS011;71462;50.650;6.888;2024-02-21T14:13:52;7.47;;;2.67;;
81960;SDS011;71462;50.650;6.888;2024-02-21T14:16:23;10.13;;;3.10;;
81960;SDS011;71462;50.650;6.888;2024-02-21T14:18:51;5.85;;;2.60;;
81960;SDS011;71462;50.650;6.888;2024-02-21T14:21:20;7.85;;;2.35;;
81960;SDS011;71462;50.650;6.888;2024-02-21T14:23:47;5.75;;;2.60;;
81960;SDS011;71462;50.650;6.888;2024-02-21T14:26:15;9.73;;;2.45;;
81960;SDS011;71462;50.650;6.888;2024-02-21T14:28:44;5.38;;;2.28;;
81960;SDS011;71462;50.650;6.888;2024-02-21T14:31:14;6.63;;;2.85;;
81960;SDS011;71462;50.650;6.888;2024-02-21T14:33:43;8.10;;;2.83;;
81960;SDS011;71462;50.650;6.888;2024-02-21T14:36:15;5.22;;;2.10;;
81960;SDS011;71462;50.650;6.888;2024-02-21T14:38:42;5.88;;;2.55;;
81960;SDS011;71462;50.650;6.888;2024-02-21T14:41:10;6.32;;;2.30;;
81960;SDS011;71462;50.650;6.888;2024-02-21T14:43:39;7.68;;;2.40;;
81960;SDS011;71462;50.650;6.888;2024-02-21T14:46:08;8.48;;;2.97;;
81960;SDS011;71462;50.650;6.888;2024-02-21T14:48:35;9.07;;;2.30;;
81960;SDS011;71462;50.650;6.888;2024-02-21T14:51:03;9.20;;;2.72;;
81960;SDS011;71462;50.650;6.888;2024-02-21T14:53:32;6.70;;;2.60;;